Mountain Lake, MN

2:39 PM CST on February 06, 2016 (GMT -0600)
Windom Municipal | | Change Station
CLOSE
Current Station
Airport
Location: Windom,
Elevation: 1411 ft
Nearby Weather Stations
Active Advisory: Blizzard Watch

Elev 1411 ft 43.91 °N, 95.11 °W | Updated 4 minutes ago

Partly Cloudy
Partly Cloudy
36 °F
Feels Like 26 °F
N
16
Wind Variable Wind from South
Gusts 22 mph

Today
High -- | Low -- °F
--% Chance of Precip.
Yesterday
High -- | Low -- °F
Precip. -- in
Pressure 29.92 in
Visibility 10.0 miles
Clouds Clear
Windchill 26 °F
Dew Point 27 °F
Humidity 70%
Rainfall 0.00 in
Snow Depth Not available.
7:31 AM 5:36 PM
Waning Crescent, 4% visible
METAR KMWM 062035Z AUTO 19014G19KT 10SM CLR 02/M03 A2992 RMK AO2
Pressure 29.92 in
Visibility 10.0 miles
Clouds Clear
Windchill 26 °F
Dew Point 27 °F
Humidity 70%
Rainfall 0.00 in
Snow Depth Not available.
7:31 AM 5:36 PM
Waning Crescent, 4% visible
METAR KMWM 062035Z AUTO 19014G19KT 10SM CLR 02/M03 A2992 RMK AO2

10-Day Weather Forecast

Almanac

Astronomy

Feb. 06, 2016 Rise Set
Actual Time
Civil Twilight
Nautical Twilight
Astronomical Twilight
Moon
Length of Visible Light
Length of Day
Tomorrow will be .
, % of the Moon is Illuminated

Today's Extremes

State Highs State Lows

Community

WunderPhotos

Upload Photos

1,891,046 photos uploaded!

WunderBlog® & News

Nearby

Air Quality

  Air Quality AQ Index Pollutant
Not available.

Snow Depth

Station Depth Elevation

Earthquake Activity

City Distance Mag. Time & Date
Minimum magnitude displayed is 2.5.

Coastal Water Temperatures

Place Temperature

Stations

Nearby Weather Stations

Station Location Temp. Windchill Dew Point Humidity Wind Precip. Elev Updated Type
                   

Watches & Warnings

Blizzard Watch
Issued: 11:34 AM CST Feb. 6, 2016 – National Weather Service

... Blizzard watch remains in effect from Sunday afternoon through
Monday morning...

* timing... blizzard conditions are possible from Sunday
afternoon into Monday morning... due to a combination of strong
winds and falling snow. The strongest winds are currently
expected to impact the area Sunday evening.

* Winds / visibilities... winds gusting as high as 50 mph could
cause whiteout conditions in blowing snow. Significant
drifting of the snow that fell earlier in the week is likely.

* Snow accumulations... total snow accumulations of up to 1 inch
are possible... but higher amounts may be possible in stronger
snow showers.

* Impacts... travel could become very difficult at times due to
reduced visibility and blowing snow over roadways. Rural and
open areas will see the highest impact.

Precautionary/preparedness actions...

A blizzard watch means there is a potential for falling and/or
blowing snow with strong winds and extremely poor visibilities.
This can lead to whiteout conditions and make travel very
dangerous.